< < Back
Terminal Aerodrome Forecast


Current Version              Previous Versions:   1  2  3  4  5  6  7  8  9  

Terminal Aerodrome Forecast

928
FTUS42 KCHS 272003 AAC
TAFSAV
TAF AMD
KSAV 272003Z 2720/2818 29017G24KT P6SM BKN035
     FM280100 30010G15KT P6SM SCT100=

Latest METAR

965
SAUS80 KWBC 281600 RRB
MTRSAV
METAR KSAV 281553Z 26015G21KT 10SM SCT055 SCT250 12/M02 A3012 RMK AO2
SLP198 T01221022


USA.gov is the U.S. government's official web portal to all federal, state and local government web resources and services.